createdAt,value
2023-01-17T00:02:19.084Z,2.78
2023-01-17T00:05:04.817Z,2.85
2023-01-17T00:07:50.051Z,3.05
2023-01-17T00:10:21.782Z,3.00
2023-01-17T00:12:53.576Z,2.92
2023-01-17T00:15:23.240Z,2.63
2023-01-17T00:17:50.389Z,2.63
2023-01-17T00:20:37.937Z,2.83
2023-01-17T00:23:29.912Z,2.67
2023-01-17T00:26:02.961Z,2.90
2023-01-17T00:28:37.520Z,2.80
2023-01-17T00:31:06.263Z,2.40
2023-01-17T00:33:32.981Z,2.90
2023-01-17T00:36:01.723Z,2.83
2023-01-17T00:38:31.926Z,2.63
2023-01-17T00:41:03.159Z,2.83
2023-01-17T00:43:49.099Z,2.60
2023-01-17T00:46:34.994Z,2.90
2023-01-17T00:49:20.439Z,2.72
2023-01-17T00:52:05.647Z,2.78
2023-01-17T00:54:50.753Z,2.67
2023-01-17T00:57:35.907Z,2.95
2023-01-17T01:00:20.957Z,2.67
2023-01-17T01:03:06.272Z,3.30
2023-01-17T01:05:51.506Z,2.80
2023-01-17T01:08:45.799Z,2.88
2023-01-17T01:11:37.097Z,2.72
2023-01-17T01:14:22.870Z,2.90
2023-01-17T01:17:08.300Z,2.70
2023-01-17T01:19:53.503Z,3.15
2023-01-17T01:22:38.625Z,2.65
2023-01-17T01:25:24.384Z,2.25
2023-01-17T01:28:09.621Z,2.53
2023-01-17T01:30:54.769Z,2.85
2023-01-17T01:33:21.275Z,2.20
2023-01-17T01:35:53.846Z,2.55
2023-01-17T01:38:23.284Z,2.80
2023-01-17T01:40:52.727Z,2.40
2023-01-17T01:43:39.033Z,2.33
2023-01-17T01:46:06.690Z,2.40
2023-01-17T01:48:41.962Z,2.55
2023-01-17T01:51:12.198Z,2.85
2023-01-17T01:53:42.773Z,2.45
2023-01-17T01:56:14.070Z,3.00
2023-01-17T01:58:44.108Z,2.05
2023-01-17T02:01:10.842Z,2.90
2023-01-17T02:03:40.788Z,2.67
2023-01-17T02:06:34.187Z,2.67
2023-01-17T02:09:06.419Z,2.50
2023-01-17T02:11:34.707Z,2.58
2023-01-17T02:14:01.596Z,2.63
2023-01-17T02:16:54.564Z,3.00
2023-01-17T02:19:40.795Z,3.15
2023-01-17T02:22:34.163Z,2.28
2023-01-17T02:25:31.391Z,2.63
2023-01-17T02:28:16.262Z,3.20
2023-01-17T02:30:48.189Z,2.88
2023-01-17T02:33:37.867Z,3.15
2023-01-17T02:36:19.446Z,2.67
2023-01-17T02:39:09.918Z,2.47
2023-01-17T02:41:40.607Z,3.03
2023-01-17T02:44:15.331Z,2.53
2023-01-17T02:46:50.388Z,3.22
2023-01-17T02:49:19.277Z,2.60
2023-01-17T02:52:10.863Z,3.20
2023-01-17T02:55:03.574Z,2.92
2023-01-17T02:57:49.392Z,3.17
2023-01-17T03:00:27.743Z,3.17
2023-01-17T03:03:32.061Z,2.72
2023-01-17T03:06:12.231Z,2.60
2023-01-17T03:08:45.875Z,3.05
2023-01-17T03:11:13.792Z,3.40
2023-01-17T03:13:41.213Z,2.90
2023-01-17T03:16:34.160Z,3.03
2023-01-17T03:19:01.230Z,2.88
2023-01-17T03:21:27.725Z,3.33
2023-01-17T03:23:54.452Z,3.20
2023-01-17T03:26:21.152Z,2.95
2023-01-17T03:28:47.693Z,3.33
2023-01-17T03:31:15.976Z,3.63
2023-01-17T03:33:42.602Z,3.30
2023-01-17T03:36:09.592Z,3.60
2023-01-17T03:38:37.383Z,3.58
2023-01-17T03:41:04.634Z,3.60
2023-01-17T03:43:34.037Z,3.58
2023-01-17T03:46:17.123Z,3.30
2023-01-17T03:48:43.659Z,3.88
2023-01-17T03:51:10.194Z,3.20
2023-01-17T03:53:36.724Z,3.42
2023-01-17T03:56:04.619Z,3.33
2023-01-17T03:58:31.486Z,3.70
2023-01-17T04:00:58.059Z,3.70
2023-01-17T04:03:24.667Z,3.60
2023-01-17T04:05:53.296Z,3.22
2023-01-17T04:08:20.865Z,3.65
2023-01-17T04:10:48.633Z,3.90
2023-01-17T04:13:16.783Z,4.00
2023-01-17T04:15:48.404Z,3.47
2023-01-17T04:18:17.447Z,3.55
2023-01-17T04:20:44.208Z,4.07
2023-01-17T04:23:11.278Z,3.90
2023-01-17T04:25:37.880Z,3.58
2023-01-17T04:28:05.262Z,3.53
2023-01-17T04:30:32.749Z,3.72
2023-01-17T04:33:00.291Z,3.55
2023-01-17T04:35:28.923Z,3.40
2023-01-17T04:37:55.497Z,3.35
2023-01-17T04:40:22.364Z,4.28
2023-01-17T04:42:48.907Z,4.15
2023-01-17T04:45:15.751Z,3.50
2023-01-17T04:47:42.224Z,3.70
2023-01-17T04:50:10.050Z,3.65
2023-01-17T04:52:36.640Z,3.10
2023-01-17T04:55:03.399Z,4.03
2023-01-17T04:57:30.116Z,3.42
2023-01-17T04:59:56.633Z,3.97
2023-01-17T05:02:23.165Z,3.55
2023-01-17T05:04:49.664Z,3.65
2023-01-17T05:07:16.237Z,3.88
2023-01-17T05:09:43.837Z,4.03
2023-01-17T05:12:10.896Z,4.45
2023-01-17T05:14:37.442Z,3.80
2023-01-17T05:17:04.283Z,3.30
2023-01-17T05:19:30.873Z,3.85
2023-01-17T05:22:03.901Z,3.60
2023-01-17T05:24:31.527Z,3.83
2023-01-17T05:27:03.073Z,3.72
2023-01-17T05:29:30.515Z,4.13
2023-01-17T05:31:57.381Z,3.67
2023-01-17T05:34:24.068Z,3.90
2023-01-17T05:36:51.010Z,3.72
2023-01-17T05:39:17.771Z,4.03
2023-01-17T05:41:44.742Z,3.63
2023-01-17T05:44:11.567Z,3.67
2023-01-17T05:46:38.432Z,3.53
2023-01-17T05:49:05.384Z,3.45
2023-01-17T05:51:33.271Z,3.47
2023-01-17T05:53:59.786Z,3.42
2023-01-17T05:56:26.406Z,3.25
2023-01-17T05:58:52.908Z,3.72
2023-01-17T06:01:20.388Z,3.63
2023-01-17T06:03:46.915Z,3.70
2023-01-17T06:06:13.514Z,3.38
2023-01-17T06:08:40.076Z,4.05
2023-01-17T06:11:06.653Z,3.65
2023-01-17T06:13:34.184Z,3.03
2023-01-17T06:16:04.436Z,3.80
2023-01-17T06:18:31.898Z,3.78
2023-01-17T06:20:58.710Z,3.83
2023-01-17T06:23:25.762Z,4.03
2023-01-17T06:25:52.884Z,3.78
2023-01-17T06:28:22.659Z,3.70
2023-01-17T06:30:50.664Z,3.83
2023-01-17T06:33:17.573Z,3.78
2023-01-17T06:35:51.956Z,3.75
2023-01-17T06:38:21.867Z,3.78
2023-01-17T06:40:49.264Z,3.38
2023-01-17T06:43:15.956Z,3.40
2023-01-17T06:45:42.464Z,3.83
2023-01-17T06:48:08.972Z,4.03
2023-01-17T06:50:35.538Z,3.30
2023-01-17T06:53:05.099Z,3.63
2023-01-17T06:55:33.801Z,3.20
2023-01-17T06:58:02.801Z,3.72
2023-01-17T07:00:31.355Z,3.45
2023-01-17T07:02:58.070Z,3.28
2023-01-17T07:05:24.979Z,3.17
2023-01-17T07:07:51.584Z,2.90
2023-01-17T07:10:18.162Z,3.15
2023-01-17T07:12:44.683Z,3.05
2023-01-17T07:15:11.896Z,3.10
2023-01-17T07:17:38.918Z,3.80
2023-01-17T07:20:06.392Z,3.85
2023-01-17T07:22:32.884Z,4.03
2023-01-17T07:24:59.712Z,3.58
2023-01-17T07:27:27.767Z,4.10
2023-01-17T07:29:54.470Z,4.28
2023-01-17T07:32:21.076Z,4.82
2023-01-17T07:34:47.553Z,4.43
2023-01-17T07:37:15.349Z,6.13
2023-01-17T07:39:42.157Z,8.32
2023-01-17T07:42:09.127Z,6.15
2023-01-17T07:44:35.594Z,4.45
2023-01-17T07:49:28.406Z,3.80
2023-01-17T07:51:55.507Z,5.57
2023-01-17T07:54:22.080Z,6.97
2023-01-17T07:56:48.996Z,7.82
2023-01-17T07:59:15.605Z,7.05
2023-01-17T08:01:42.249Z,6.03
2023-01-17T08:04:09.413Z,5.43
2023-01-17T08:06:39.385Z,4.25
2023-01-17T08:09:05.848Z,3.85
2023-01-17T08:11:32.322Z,3.72
2023-01-17T08:13:59.767Z,3.92
2023-01-17T08:16:28.718Z,3.75
2023-01-17T08:18:56.375Z,3.83
2023-01-17T08:21:24.376Z,5.57
2023-01-17T08:23:51.997Z,5.40
2023-01-17T08:26:23.351Z,4.35
2023-01-17T08:28:58.159Z,3.70
2023-01-17T08:31:24.815Z,4.10
2023-01-17T08:33:51.340Z,3.28
2023-01-17T08:38:44.473Z,3.83
2023-01-17T08:41:11.155Z,3.97
2023-01-17T08:43:37.665Z,3.53
2023-01-17T08:46:06.140Z,3.42
2023-01-17T08:48:32.672Z,3.55
2023-01-17T08:51:02.674Z,3.70
2023-01-17T08:53:29.227Z,3.60
2023-01-17T08:56:00.557Z,4.03
2023-01-17T08:58:30.583Z,3.90
2023-01-17T09:01:05.136Z,3.47
2023-01-17T09:03:32.761Z,3.47
2023-01-17T09:06:10.369Z,3.65
2023-01-17T09:08:37.211Z,4.05
2023-01-17T09:11:11.632Z,4.13
2023-01-17T09:13:38.812Z,6.50
2023-01-17T09:16:06.885Z,6.22
2023-01-17T09:18:34.401Z,6.65
2023-01-17T09:21:10.265Z,5.13
2023-01-17T09:23:36.868Z,5.47
2023-01-17T09:26:03.320Z,4.55
2023-01-17T09:30:56.207Z,4.40
2023-01-17T09:33:25.661Z,4.10
2023-01-17T09:35:52.222Z,5.03
2023-01-17T09:38:18.780Z,5.15
2023-01-17T09:40:48.294Z,4.82
2023-01-17T09:43:40.921Z,4.57
2023-01-17T09:46:22.299Z,4.32
2023-01-17T09:48:55.947Z,4.80
2023-01-17T09:51:26.915Z,4.20
2023-01-17T09:53:54.556Z,5.00
2023-01-17T09:56:29.606Z,5.00
2023-01-17T09:59:20.847Z,5.47
2023-01-17T10:01:52.754Z,4.30
2023-01-17T10:04:37.989Z,4.75
2023-01-17T10:07:07.142Z,4.60
2023-01-17T10:09:55.359Z,4.30
2023-01-17T10:12:33.466Z,4.07
2023-01-17T10:15:22.028Z,3.83
2023-01-17T10:18:03.632Z,5.07
2023-01-17T10:20:49.539Z,3.67
2023-01-17T10:23:41.705Z,4.68
2023-01-17T10:26:15.191Z,4.47
2023-01-17T10:28:47.110Z,3.75
2023-01-17T10:31:35.531Z,3.97
2023-01-17T10:34:10.749Z,3.95
2023-01-17T10:36:44.882Z,4.13
2023-01-17T10:39:25.918Z,4.20
2023-01-17T10:41:55.494Z,4.03
2023-01-17T10:44:32.318Z,4.18
2023-01-17T10:47:11.069Z,4.03
2023-01-17T10:49:42.357Z,3.92
2023-01-17T10:52:22.789Z,4.47
2023-01-17T10:54:50.029Z,3.60
2023-01-17T10:57:21.477Z,3.42
2023-01-17T10:59:48.576Z,3.30
2023-01-17T11:02:23.846Z,3.05
2023-01-17T11:04:55.800Z,3.97
2023-01-17T11:07:25.294Z,5.40
2023-01-17T11:09:54.468Z,5.68
2023-01-17T11:12:28.260Z,4.32
2023-01-17T11:32:32.569Z,3.58
2023-01-17T11:35:21.776Z,3.72
2023-01-17T11:37:51.228Z,3.10
2023-01-17T11:40:20.539Z,3.05
2023-01-17T11:42:47.081Z,3.33
2023-01-17T11:45:25.576Z,3.25
2023-01-17T11:48:05.380Z,3.60
2023-01-17T11:50:31.991Z,2.83
2023-01-17T11:53:15.259Z,4.05
2023-01-17T11:55:55.856Z,3.60
2023-01-17T11:58:24.221Z,3.42
2023-01-17T12:01:10.771Z,3.65
2023-01-17T12:03:47.435Z,3.10
2023-01-17T12:06:19.707Z,3.50
2023-01-17T12:08:54.105Z,3.45
2023-01-17T12:11:39.394Z,3.50
2023-01-17T12:14:17.049Z,3.63
2023-01-17T12:17:11.545Z,3.15
2023-01-17T12:20:05.098Z,3.00
2023-01-17T12:23:06.128Z,3.28
2023-01-17T12:25:54.536Z,4.03
2023-01-17T12:28:37.180Z,2.75
2023-01-17T12:31:24.539Z,2.72
2023-01-17T12:34:03.464Z,3.20
2023-01-17T12:36:36.226Z,3.00
2023-01-17T12:39:10.119Z,2.70
2023-01-17T12:41:50.947Z,2.50
2023-01-17T12:44:20.041Z,3.38
2023-01-17T12:46:54.679Z,3.30
2023-01-17T12:49:36.432Z,2.90
2023-01-17T12:52:13.806Z,2.47
2023-01-17T12:54:44.805Z,2.67
2023-01-17T12:57:20.312Z,2.67
2023-01-17T13:00:05.001Z,2.42
2023-01-17T13:02:52.665Z,3.28
2023-01-17T13:05:48.814Z,3.22
2023-01-17T13:08:35.902Z,2.88
2023-01-17T13:11:28.286Z,3.33
2023-01-17T13:13:57.551Z,2.67
2023-01-17T13:16:33.995Z,2.85
2023-01-17T13:19:12.821Z,3.40
2023-01-17T13:21:41.133Z,2.88
2023-01-17T13:24:13.592Z,3.10
2023-01-17T13:27:02.195Z,2.60
2023-01-17T13:29:59.084Z,3.13
2023-01-17T13:32:48.569Z,3.08
2023-01-17T13:35:21.385Z,3.40
2023-01-17T13:37:56.763Z,3.78
2023-01-17T13:40:32.918Z,3.55
2023-01-17T13:43:10.996Z,3.00
2023-01-17T13:45:38.174Z,3.20
2023-01-17T13:48:17.159Z,2.65
2023-01-17T13:50:48.100Z,2.47
2023-01-17T13:53:39.391Z,3.00
2023-01-17T13:56:31.791Z,3.50
2023-01-17T13:59:04.954Z,2.95
2023-01-17T14:01:42.985Z,3.47
2023-01-17T14:04:11.625Z,2.97
2023-01-17T14:06:47.781Z,2.42
2023-01-17T14:09:42.244Z,3.38
2023-01-17T14:12:08.744Z,2.78
2023-01-17T14:14:41.507Z,3.10
2023-01-17T14:17:44.196Z,2.60
2023-01-17T14:20:12.409Z,3.25
2023-01-17T14:22:47.450Z,4.25
2023-01-17T14:25:19.174Z,6.22
2023-01-17T14:27:49.091Z,6.60
2023-01-17T14:30:25.065Z,13.43
2023-01-17T14:33:05.936Z,5.65
2023-01-17T14:35:36.283Z,3.85
2023-01-17T14:38:05.615Z,4.60
2023-01-17T14:40:34.131Z,4.30
2023-01-17T14:43:04.307Z,3.45
2023-01-17T14:45:34.563Z,3.40
2023-01-17T14:48:04.317Z,3.85
2023-01-17T14:50:39.875Z,3.42
2023-01-17T14:53:12.612Z,3.65
2023-01-17T14:55:47.957Z,3.58
2023-01-17T14:58:18.548Z,4.85
2023-01-17T15:00:46.783Z,4.35
2023-01-17T15:03:13.649Z,3.78
2023-01-17T15:05:43.073Z,3.58
2023-01-17T15:08:18.390Z,4.45
2023-01-17T15:11:02.944Z,5.10
2023-01-17T15:13:44.274Z,5.88
2023-01-17T15:16:19.176Z,3.80
2023-01-17T15:18:46.302Z,4.13
2023-01-17T15:21:17.245Z,3.72
2023-01-17T15:23:47.301Z,3.58
2023-01-17T15:26:17.944Z,4.07
2023-01-17T15:28:45.589Z,3.60
2023-01-17T15:31:15.801Z,3.75
2023-01-17T15:33:45.575Z,4.45
2023-01-17T15:36:23.925Z,4.35
2023-01-17T15:39:06.270Z,5.03
2023-01-17T15:41:39.569Z,4.80
2023-01-17T15:44:08.075Z,5.97
2023-01-17T15:46:43.194Z,6.15
2023-01-17T15:49:22.245Z,5.63
2023-01-17T15:51:56.247Z,5.53
2023-01-17T15:54:33.690Z,4.80
2023-01-17T15:57:06.673Z,4.57
2023-01-17T15:59:42.706Z,3.80
2023-01-17T16:02:43.558Z,3.80
2023-01-17T16:05:22.883Z,4.25
2023-01-17T16:07:55.964Z,3.80
2023-01-17T16:10:24.877Z,3.42
2023-01-17T16:12:53.791Z,3.83
2023-01-17T16:15:22.115Z,3.25
2023-01-17T16:17:51.508Z,3.78
2023-01-17T16:20:30.035Z,3.33
2023-01-17T16:22:56.663Z,4.80
2023-01-17T16:25:24.404Z,5.53
2023-01-17T16:27:52.128Z,5.53
2023-01-17T16:30:21.661Z,6.40
2023-01-17T16:32:49.027Z,5.20
2023-01-17T16:35:20.945Z,5.85
2023-01-17T16:38:04.882Z,5.38
2023-01-17T16:40:38.444Z,6.93
2023-01-17T16:43:05.038Z,7.15
2023-01-17T16:45:38.973Z,6.63
2023-01-17T16:48:05.888Z,6.15
2023-01-17T16:50:32.624Z,6.68
2023-01-17T16:52:59.135Z,7.78
2023-01-17T16:55:26.453Z,7.82
2023-01-17T16:57:56.225Z,6.75
2023-01-17T17:00:23.152Z,6.25
2023-01-17T17:02:50.907Z,7.70
2023-01-17T17:05:18.361Z,6.65
2023-01-17T17:07:46.211Z,6.32
2023-01-17T17:10:15.538Z,7.75
2023-01-17T17:12:42.469Z,8.32
2023-01-17T17:15:10.575Z,7.97
2023-01-17T17:17:40.971Z,9.75
2023-01-17T17:20:13.603Z,6.18
2023-01-17T17:22:42.964Z,6.32
2023-01-17T17:25:11.191Z,9.60
2023-01-17T17:27:38.244Z,7.78
2023-01-17T17:30:05.168Z,5.65
2023-01-17T17:32:32.536Z,5.97
2023-01-17T17:34:59.381Z,6.10
2023-01-17T17:37:28.958Z,6.00
2023-01-17T17:39:56.601Z,5.70
2023-01-17T17:42:23.255Z,5.13
2023-01-17T17:44:50.108Z,5.28
2023-01-17T17:47:17.879Z,7.00
2023-01-17T17:49:44.509Z,10.68
2023-01-17T17:52:11.121Z,11.77
2023-01-17T17:54:37.813Z,10.57
2023-01-17T17:57:04.600Z,7.90
2023-01-17T17:59:31.205Z,6.50
2023-01-17T18:01:59.628Z,6.53
2023-01-17T18:04:26.898Z,5.18
2023-01-17T18:06:58.015Z,6.80
2023-01-17T18:09:24.587Z,8.20
2023-01-17T18:11:51.211Z,11.48
2023-01-17T18:14:20.953Z,14.02
2023-01-17T18:16:48.353Z,10.45
2023-01-17T18:19:18.318Z,7.30
2023-01-17T18:21:45.063Z,7.10
2023-01-17T18:24:16.528Z,7.68
2023-01-17T18:26:54.501Z,7.78
2023-01-17T18:29:22.632Z,6.63
2023-01-17T18:31:50.739Z,7.13
2023-01-17T18:34:21.286Z,6.63
2023-01-17T18:36:47.788Z,7.13
2023-01-17T18:39:24.470Z,5.38
2023-01-17T18:41:51.720Z,6.40
2023-01-17T18:44:21.821Z,5.35
2023-01-17T18:46:50.149Z,5.95
2023-01-17T18:49:19.162Z,5.38
2023-01-17T18:51:50.967Z,6.53
2023-01-17T18:54:19.162Z,6.47
2023-01-17T18:56:46.106Z,7.65
2023-01-17T18:59:13.890Z,5.55
2023-01-17T19:01:43.798Z,5.63
2023-01-17T19:04:12.245Z,6.80
2023-01-17T19:06:41.572Z,6.80
2023-01-17T19:09:09.115Z,7.28
2023-01-17T19:11:36.645Z,6.63
2023-01-17T19:14:04.073Z,10.73
2023-01-17T19:16:34.608Z,13.10
2023-01-17T19:19:04.436Z,14.70
2023-01-17T19:21:31.868Z,15.82
2023-01-17T19:23:58.816Z,12.77
2023-01-17T19:26:27.385Z,7.75
2023-01-17T19:28:56.209Z,6.65
2023-01-17T19:31:25.693Z,5.22
2023-01-17T19:33:54.295Z,5.65
2023-01-17T19:36:25.787Z,4.70
2023-01-17T19:39:04.120Z,5.53
2023-01-17T19:41:32.005Z,6.18
2023-01-17T19:44:07.157Z,6.35
2023-01-17T19:46:34.551Z,9.32
2023-01-17T19:49:01.454Z,9.48
2023-01-17T19:51:28.311Z,8.38
2023-01-17T19:53:55.278Z,6.32
2023-01-17T19:56:24.585Z,5.55
2023-01-17T19:58:52.190Z,8.00
2023-01-17T20:01:22.078Z,9.50
2023-01-17T20:03:49.574Z,8.65
2023-01-17T20:06:19.239Z,10.30
2023-01-17T20:08:45.993Z,7.43
2023-01-17T20:11:15.251Z,7.78
2023-01-17T20:13:42.296Z,8.07
2023-01-17T20:16:11.282Z,9.05
2023-01-17T20:18:37.852Z,6.85
2023-01-17T20:21:05.260Z,4.75
2023-01-17T20:23:40.217Z,6.22
2023-01-17T20:26:06.779Z,5.05
2023-01-17T20:28:34.886Z,6.22
2023-01-17T20:31:09.902Z,6.10
2023-01-17T20:33:36.491Z,5.38
2023-01-17T20:36:10.655Z,5.18
2023-01-17T20:38:44.527Z,5.30
2023-01-17T20:41:20.811Z,6.20
2023-01-17T20:43:52.825Z,5.10
2023-01-17T20:46:21.560Z,6.97
2023-01-17T20:48:50.596Z,7.63
2023-01-17T20:51:18.396Z,10.00
2023-01-17T20:53:46.493Z,17.15
2023-01-17T20:56:15.953Z,17.80
2023-01-17T20:58:42.797Z,11.40
2023-01-17T21:01:12.017Z,10.38
2023-01-17T21:03:39.678Z,11.95
2023-01-17T21:06:08.712Z,10.02
2023-01-17T21:08:37.404Z,9.55
2023-01-17T21:11:05.673Z,8.35
2023-01-17T21:13:32.475Z,7.65
2023-01-17T21:15:59.616Z,9.77
2023-01-17T21:18:28.180Z,7.93
2023-01-17T21:20:54.768Z,7.75
2023-01-17T21:23:23.435Z,8.05
2023-01-17T21:25:55.551Z,7.05
2023-01-17T21:28:23.714Z,7.22
2023-01-17T21:30:50.495Z,9.32
2023-01-17T21:33:18.215Z,10.02
2023-01-17T21:35:44.823Z,9.60
2023-01-17T21:38:12.199Z,8.32
2023-01-17T21:40:38.956Z,7.70
2023-01-17T21:43:05.559Z,8.75
2023-01-17T21:45:35.718Z,8.48
2023-01-17T21:48:02.210Z,9.77
2023-01-17T21:50:33.338Z,10.25
2023-01-17T21:53:00.294Z,9.95
2023-01-17T21:55:46.006Z,8.88
2023-01-17T21:58:36.031Z,8.15
2023-01-17T22:01:18.939Z,8.63
2023-01-17T22:03:49.199Z,7.72
2023-01-17T22:06:16.147Z,8.68
2023-01-17T22:08:42.935Z,8.82
2023-01-17T22:11:12.814Z,8.10
2023-01-17T22:13:40.905Z,8.30
2023-01-17T22:16:10.735Z,6.72
2023-01-17T22:18:39.305Z,6.57
2023-01-17T22:21:08.411Z,7.75
2023-01-17T22:23:35.180Z,7.38
2023-01-17T22:26:09.838Z,8.07
2023-01-17T22:28:37.134Z,7.90
2023-01-17T22:31:23.382Z,7.80
2023-01-17T22:33:58.505Z,7.82
2023-01-17T22:36:25.888Z,8.40
2023-01-17T22:38:52.759Z,9.05
2023-01-17T22:41:24.952Z,8.52
2023-01-17T22:43:53.882Z,7.53
2023-01-17T22:46:26.795Z,8.63
2023-01-17T22:48:54.996Z,8.02
2023-01-17T22:51:23.064Z,7.90
2023-01-17T22:53:51.991Z,8.30
2023-01-17T22:56:21.528Z,8.50
2023-01-17T22:58:49.040Z,8.52
2023-01-17T23:17:53.163Z,12.93
2023-01-17T23:20:19.851Z,13.95
2023-01-17T23:22:46.505Z,16.23
2023-01-17T23:25:13.460Z,14.68
2023-01-17T23:28:00.168Z,16.50
2023-01-17T23:30:34.444Z,17.85
2023-01-17T23:33:09.695Z,17.15
2023-01-17T23:35:41.692Z,13.57
2023-01-17T23:38:33.801Z,14.27
2023-01-17T23:41:24.551Z,12.80
2023-01-17T23:43:53.382Z,13.90
2023-01-17T23:46:20.477Z,13.73
2023-01-17T23:48:47.705Z,12.80
2023-01-17T23:51:14.401Z,12.15
2023-01-17T23:53:41.514Z,13.70
2023-01-17T23:56:17.048Z,14.52
2023-01-17T23:58:43.781Z,16.73
